Terminal Aerodrome Forecast
Issued by NWS Atlanta, GA

Home | Current Version | Previous Version | Text Only | Print | Product List | Glossary On
Versions: 1 2 3 4 5 6 7 8 9 10 11 12 13 14 15 16 17 18 19 20 21
000
FTUS42 KFFC 271726
TAFMCN
TAF
KMCN 271726Z 2718/2818 VRB04KT P6SM BKN035
     FM272000 17006KT P6SM VCSH BKN035
      TEMPO 2721/2724 3SM -TSRA BKN025CB
     FM280000 VRB03KT P6SM BKN040
     FM280500 VRB03KT P6SM SCT020 BKN080
     FM281000 VRB03KT P6SM BKN015
     FM281400 14003KT P6SM BKN025=

USA.gov is the U.S. government's official web portal to all federal, state and local government web resources and services.